CheckWX is a tool to help pilots better visualize weather data.  It is not intended as a substitute for an official pre-flight weather briefing.

20:20:42 UTC

KJXN METAR
Jackson County-Reynolds Field Airport
Jackson, Michigan, USA
Current

25 mins ago

KJXN 261956Z 25007G16KT 200V280 10SM FEW060 28/16 A3008 RMK AO2 SLP179 T02830156
Observed
Jun-26 @ 19:56 UTC
Wind
  • 250° at 7 KTS
  • Gusting to 16 KTS
Visibility
10 SM
Flight Rules
VFR
Cloud Levels
  • Few at 6,000' AGL
Temperature
28°C / 82°F
Dewpoint
16°C / 61°F
Heat Index
28°C / 82°F
Humidity
48%
Altimeter
30.08" Hg
Pressure
1018.62 hPa
Previous

1 hour ago

KJXN 261856Z 24007KT 10SM CLR 28/15 A3009 RMK AO2 SLP181 T02830150
Observed
Jun-26 @ 18:56 UTC
Wind
  • 240° at 7 KTS
Visibility
10 SM
Flight Rules
VFR
Cloud Levels
  • Clear skies
Temperature
28°C / 82°F
Dewpoint
15°C / 59°F
Heat Index
28°C / 82°F
Humidity
45%
Altimeter
30.09" Hg
Pressure
1018.92 hPa
Previous

2 hours ago

KJXN 261756Z 24006KT 10SM SCT060 28/15 A3008 RMK AO2 SLP179 T02780150 10283 20217 50002
Observed
Jun-26 @ 17:56 UTC
Wind
  • 240° at 6 KTS
Visibility
10 SM
Flight Rules
VFR
Cloud Levels
  • Scattered at 6,000' AGL
Temperature
28°C / 82°F
Dewpoint
15°C / 59°F
Heat Index
28°C / 82°F
Humidity
45%
Altimeter
30.08" Hg
Pressure
1018.62 hPa